Time;durP1;ratioP1;P1;durP2;ratioP2;P2;SDS_P1;SDS_P2;PMS_P1;PMS_P2;Temp;Humidity;BMP_temperature;BMP_pressure;BME280_temperature;BME280_humidity;BME280_pressure;Samples;Min_cycle;Max_cycle;Signal;HPM_P1;HPM_P2
2021/05/05 00:00:13;;;;;;;;;;;20.20;39.50;;;;;;469759;252;1091;-44
2021/05/05 00:02:14;;;;;;;;;;;20.20;39.40;;;;;;469858;252;1071;-44
2021/05/05 00:04:15;;;;;;;;;;;20.30;39.40;;;;;;469650;252;1050;-44
2021/05/05 00:06:17;;;;;;;;;;;20.30;39.40;;;;;;469671;252;1326;-44
2021/05/05 00:08:18;;;;;;;;;;;20.30;39.40;;;;;;469846;252;2152;-44
2021/05/05 00:10:19;;;;;;;;;;;20.30;39.30;;;;;;469668;252;1236;-44
2021/05/05 00:12:21;;;;;;;;;;;20.40;39.30;;;;;;470057;252;1223;-44
2021/05/05 00:14:22;;;;;;;;;;;20.40;39.30;;;;;;469712;252;1078;-44
2021/05/05 00:16:23;;;;;;;;;;;20.40;39.20;;;;;;469617;252;1061;-44
2021/05/05 00:18:24;;;;;;;;;;;20.40;39.30;;;;;;470079;252;1032;-44
2021/05/05 00:20:26;;;;;;;;;;;20.40;39.20;;;;;;469986;252;1122;-44
2021/05/05 00:22:27;;;;;;;;;;;20.40;39.20;;;;;;469794;252;1203;-44
2021/05/05 00:24:28;;;;;;;;;;;20.40;39.20;;;;;;469921;252;1025;-44
2021/05/05 00:26:30;;;;;;;;;;;20.50;39.20;;;;;;469894;252;1221;-44
2021/05/05 00:28:31;;;;;;;;;;;20.50;39.10;;;;;;469740;252;2148;-44
2021/05/05 00:30:32;;;;;;;;;;;20.50;39.20;;;;;;469798;252;1237;-44
2021/05/05 00:32:33;;;;;;;;;;;20.60;39.10;;;;;;469874;252;1120;-44
2021/05/05 00:34:35;;;;;;;;;;;20.30;39.50;;;;;;469640;252;1102;-44
2021/05/05 00:36:36;;;;;;;;;;;19.80;40.60;;;;;;469871;252;1194;-44
2021/05/05 00:38:37;;;;;;;;;;;19.40;41.40;;;;;;469657;252;1141;-44
2021/05/05 00:40:39;;;;;;;;;;;19.10;42.10;;;;;;469714;252;1235;-44
2021/05/05 00:42:40;;;;;;;;;;;18.90;42.70;;;;;;469807;252;1068;-43
2021/05/05 00:44:41;;;;;;;;;;;18.70;43.00;;;;;;469792;252;1172;-44
2021/05/05 00:46:42;;;;;;;;;;;18.60;43.40;;;;;;469928;252;1349;-44
2021/05/05 00:48:44;;;;;;;;;;;18.40;43.60;;;;;;469681;252;2203;-44
2021/05/05 00:50:45;;;;;;;;;;;18.40;43.80;;;;;;469878;252;1074;-44
2021/05/05 00:52:46;;;;;;;;;;;18.30;44.00;;;;;;469836;252;1181;-43
2021/05/05 00:54:48;;;;;;;;;;;18.30;44.10;;;;;;469949;252;1184;-43
2021/05/05 00:56:49;;;;;;;;;;;18.30;44.20;;;;;;469626;252;1257;-44
2021/05/05 00:58:50;;;;;;;;;;;18.20;44.20;;;;;;469743;252;1228;-44
2021/05/05 01:00:52;;;;;;;;;;;18.10;44.50;;;;;;469725;252;1446;-44
2021/05/05 01:02:53;;;;;;;;;;;18.10;44.50;;;;;;469599;252;1115;-44
2021/05/05 01:04:54;;;;;;;;;;;18.00;44.50;;;;;;470084;252;1085;-44
2021/05/05 01:06:55;;;;;;;;;;;18.00;44.50;;;;;;469666;252;1453;-44
2021/05/05 01:08:57;;;;;;;;;;;18.00;44.60;;;;;;469764;252;2159;-44
2021/05/05 01:10:58;;;;;;;;;;;18.00;44.70;;;;;;469629;252;1139;-44
2021/05/05 01:12:59;;;;;;;;;;;18.00;44.60;;;;;;469819;252;1112;-44
2021/05/05 01:15:01;;;;;;;;;;;18.00;44.60;;;;;;469757;252;1081;-44
2021/05/05 01:17:02;;;;;;;;;;;17.90;44.70;;;;;;469706;252;1152;-44
2021/05/05 01:19:03;;;;;;;;;;;17.90;45.00;;;;;;469724;252;1143;-44
2021/05/05 01:21:04;;;;;;;;;;;17.90;45.00;;;;;;469833;252;1245;-44
2021/05/05 01:23:06;;;;;;;;;;;17.80;45.00;;;;;;469780;252;1180;-43
2021/05/05 01:25:07;;;;;;;;;;;17.80;45.10;;;;;;470137;252;1106;-44
2021/05/05 01:27:08;;;;;;;;;;;17.80;45.10;;;;;;469673;252;1189;-44
2021/05/05 01:29:09;;;;;;;;;;;17.80;45.10;;;;;;469788;252;2149;-44
2021/05/05 01:31:11;;;;;;;;;;;17.80;45.10;;;;;;469822;252;1086;-44
2021/05/05 01:33:12;;;;;;;;;;;17.80;45.10;;;;;;469675;252;1174;-43
2021/05/05 01:35:13;;;;;;;;;;;17.80;45.00;;;;;;469676;252;1069;-44
2021/05/05 01:37:15;;;;;;;;;;;17.80;45.20;;;;;;469788;252;1232;-44
2021/05/05 01:39:16;;;;;;;;;;;17.70;45.30;;;;;;469783;252;1063;-44
2021/05/05 01:41:17;;;;;;;;;;;17.70;45.30;;;;;;469709;252;1396;-44
2021/05/05 01:43:18;;;;;;;;;;;17.70;45.20;;;;;;470070;252;1149;-44
2021/05/05 01:45:20;;;;;;;;;;;17.70;45.20;;;;;;469693;252;1087;-44
2021/05/05 01:47:21;;;;;;;;;;;17.70;45.10;;;;;;469714;252;1349;-44
2021/05/05 01:49:22;;;;;;;;;;;17.80;45.10;;;;;;469906;252;2132;-44
2021/05/05 01:51:24;;;;;;;;;;;17.80;45.20;;;;;;469698;252;1296;-44
2021/05/05 01:53:25;;;;;;;;;;;17.70;45.30;;;;;;469772;252;1217;-44
2021/05/05 01:55:26;;;;;;;;;;;17.60;45.30;;;;;;469792;252;1073;-44
2021/05/05 01:57:27;;;;;;;;;;;17.60;45.40;;;;;;469677;252;1173;-44
2021/05/05 01:59:29;;;;;;;;;;;17.60;45.30;;;;;;470061;252;1102;-44
2021/05/05 02:01:30;;;;;;;;;;;17.60;45.40;;;;;;469648;252;1216;-44
2021/05/05 02:03:31;;;;;;;;;;;17.60;45.40;;;;;;469642;252;1077;-44
2021/05/05 02:05:33;;;;;;;;;;;17.60;45.40;;;;;;469708;252;1125;-44
2021/05/05 02:07:34;;;;;;;;;;;17.60;45.50;;;;;;469883;252;1273;-44
2021/05/05 02:09:35;;;;;;;;;;;17.60;45.40;;;;;;469845;252;2116;-44
2021/05/05 02:11:36;;;;;;;;;;;17.50;45.50;;;;;;469691;252;1114;-44
2021/05/05 02:13:38;;;;;;;;;;;17.50;45.60;;;;;;469898;252;1111;-44
2021/05/05 02:15:39;;;;;;;;;;;17.50;45.60;;;;;;469898;252;1120;-44
2021/05/05 02:17:40;;;;;;;;;;;17.50;45.60;;;;;;469771;252;1217;-44
2021/05/05 02:19:42;;;;;;;;;;;17.50;45.50;;;;;;470123;252;1092;-44
2021/05/05 02:21:43;;;;;;;;;;;17.50;45.50;;;;;;470059;252;1267;-44
2021/05/05 02:23:44;;;;;;;;;;;17.50;45.50;;;;;;469660;252;1184;-44
2021/05/05 02:25:45;;;;;;;;;;;17.60;45.40;;;;;;469879;252;1075;-44
2021/05/05 02:27:48;;;;;;;;;;;17.50;45.40;;;;;;469654;250;1153;-44
2021/05/05 02:29:48;;;;;;;;;;;17.50;45.40;;;;;;469780;252;1958;-43
2021/05/05 02:31:49;;;;;;;;;;;17.50;45.50;;;;;;469695;252;1169;-44
2021/05/05 02:33:50;;;;;;;;;;;17.50;45.60;;;;;;470131;252;1063;-44
2021/05/05 02:35:52;;;;;;;;;;;17.50;45.60;;;;;;469878;252;1200;-44
2021/05/05 02:37:53;;;;;;;;;;;17.70;45.30;;;;;;470044;252;1244;-44
2021/05/05 02:39:55;;;;;;;;;;;18.10;44.20;;;;;;469879;252;1061;-44
2021/05/05 02:41:56;;;;;;;;;;;18.50;43.30;;;;;;469600;252;1280;-44
2021/05/05 02:43:57;;;;;;;;;;;18.70;42.70;;;;;;470128;252;1076;-44
2021/05/05 02:45:58;;;;;;;;;;;18.90;42.30;;;;;;469669;252;1379;-44
2021/05/05 02:48:00;;;;;;;;;;;19.10;42.00;;;;;;469728;252;2200;-44
2021/05/05 02:50:01;;;;;;;;;;;19.20;41.70;;;;;;470081;252;1079;-44
2021/05/05 02:52:02;;;;;;;;;;;19.30;41.50;;;;;;469633;252;1330;-44
2021/05/05 02:54:03;;;;;;;;;;;19.30;41.30;;;;;;469811;252;1197;-44
2021/05/05 02:56:05;;;;;;;;;;;19.40;41.20;;;;;;469566;252;1269;-44
2021/05/05 02:58:06;;;;;;;;;;;19.50;41.10;;;;;;470133;252;1186;-44
2021/05/05 03:00:08;;;;;;;;;;;19.50;40.90;;;;;;470201;252;1099;-44
2021/05/05 03:02:09;;;;;;;;;;;19.60;40.90;;;;;;469692;252;1182;-44
2021/05/05 03:04:10;;;;;;;;;;;19.60;40.70;;;;;;470101;252;1069;-44
2021/05/05 03:06:12;;;;;;;;;;;19.70;40.60;;;;;;469832;252;1237;-44
2021/05/05 03:08:14;;;;;;;;;;;19.70;40.50;;;;;;469835;252;2153;-44
2021/05/05 03:10:15;;;;;;;;;;;19.70;40.40;;;;;;469999;252;1074;-44
2021/05/05 03:12:16;;;;;;;;;;;19.80;40.50;;;;;;469879;252;1191;-44
2021/05/05 03:14:18;;;;;;;;;;;19.80;40.30;;;;;;469919;252;1591;-44
2021/05/05 03:16:19;;;;;;;;;;;19.80;40.30;;;;;;469643;252;1178;-44
2021/05/05 03:18:20;;;;;;;;;;;19.90;40.30;;;;;;469684;252;1153;-44
2021/05/05 03:20:22;;;;;;;;;;;19.90;40.20;;;;;;469976;252;1079;-44
2021/05/05 03:22:23;;;;;;;;;;;20.00;40.20;;;;;;469935;252;1342;-44
2021/05/05 03:24:24;;;;;;;;;;;20.00;40.10;;;;;;469678;252;1127;-44
2021/05/05 03:26:26;;;;;;;;;;;20.00;40.00;;;;;;469936;252;1252;-44
2021/05/05 03:28:27;;;;;;;;;;;20.00;40.00;;;;;;469745;252;2199;-44
2021/05/05 03:30:28;;;;;;;;;;;20.00;40.00;;;;;;469793;252;1119;-44
2021/05/05 03:32:30;;;;;;;;;;;20.10;40.00;;;;;;469659;252;1177;-44
2021/05/05 03:34:31;;;;;;;;;;;20.10;40.00;;;;;;469838;252;1112;-44
2021/05/05 03:36:32;;;;;;;;;;;20.10;39.90;;;;;;469719;252;1095;-44
2021/05/05 03:38:34;;;;;;;;;;;20.10;39.80;;;;;;469711;252;1219;-44
2021/05/05 03:40:35;;;;;;;;;;;20.20;39.80;;;;;;469658;252;1065;-44
2021/05/05 03:42:36;;;;;;;;;;;20.20;39.80;;;;;;469638;252;1469;-44
2021/05/05 03:44:38;;;;;;;;;;;20.20;39.80;;;;;;469844;252;1073;-44
2021/05/05 03:46:39;;;;;;;;;;;20.20;39.70;;;;;;469846;250;1276;-44
2021/05/05 03:48:40;;;;;;;;;;;20.20;39.70;;;;;;469665;252;2137;-44
2021/05/05 03:50:41;;;;;;;;;;;20.30;39.60;;;;;;469811;252;1414;-44
2021/05/05 03:52:42;;;;;;;;;;;20.30;39.60;;;;;;469943;249;1448;-44
2021/05/05 03:54:44;;;;;;;;;;;20.30;39.60;;;;;;469906;252;1208;-44
2021/05/05 03:56:45;;;;;;;;;;;20.30;39.50;;;;;;469757;252;1357;-44
2021/05/05 03:58:46;;;;;;;;;;;20.40;39.50;;;;;;470093;252;1178;-44
2021/05/05 04:00:48;;;;;;;;;;;20.40;39.50;;;;;;469676;252;1278;-44
2021/05/05 04:02:49;;;;;;;;;;;20.40;39.50;;;;;;469648;252;1073;-44
2021/05/05 04:04:50;;;;;;;;;;;20.40;39.50;;;;;;469946;252;1039;-44
2021/05/05 04:06:51;;;;;;;;;;;20.40;39.40;;;;;;469580;252;1100;-44
2021/05/05 04:08:53;;;;;;;;;;;20.40;39.40;;;;;;469520;252;2220;-44
2021/05/05 04:10:54;;;;;;;;;;;20.40;39.60;;;;;;469665;252;1186;-44
2021/05/05 04:12:55;;;;;;;;;;;20.50;39.50;;;;;;469642;252;1097;-44
2021/05/05 04:14:57;;;;;;;;;;;20.40;39.70;;;;;;469869;252;1093;-44
2021/05/05 04:16:58;;;;;;;;;;;19.90;40.50;;;;;;469550;252;1089;-44
2021/05/05 04:18:59;;;;;;;;;;;19.50;41.50;;;;;;469621;252;1140;-44
2021/05/05 04:21:00;;;;;;;;;;;19.10;42.30;;;;;;469609;252;1078;-44
2021/05/05 04:23:02;;;;;;;;;;;18.90;42.80;;;;;;469715;252;1073;-44
2021/05/05 04:25:03;;;;;;;;;;;18.70;43.20;;;;;;469769;252;1307;-44
2021/05/05 04:27:05;;;;;;;;;;;18.60;43.60;;;;;;470014;252;1211;-44
2021/05/05 04:29:06;;;;;;;;;;;18.50;44.00;;;;;;469740;252;2149;-44
2021/05/05 04:31:07;;;;;;;;;;;18.40;44.00;;;;;;469655;252;1253;-44
2021/05/05 04:33:08;;;;;;;;;;;18.40;44.20;;;;;;469547;252;1109;-44
2021/05/05 04:35:10;;;;;;;;;;;18.30;44.20;;;;;;469483;252;1085;-44
2021/05/05 04:37:11;;;;;;;;;;;18.30;44.30;;;;;;469608;252;1206;-44
2021/05/05 04:39:12;;;;;;;;;;;18.20;44.60;;;;;;469532;252;1259;-44
2021/05/05 04:41:14;;;;;;;;;;;18.20;44.70;;;;;;469914;252;1118;-44
2021/05/05 04:43:15;;;;;;;;;;;18.10;44.70;;;;;;469524;252;1077;-44
2021/05/05 04:45:16;;;;;;;;;;;18.10;44.80;;;;;;469786;252;1058;-44
2021/05/05 04:47:17;;;;;;;;;;;18.10;44.80;;;;;;469549;252;1137;-43
2021/05/05 04:49:19;;;;;;;;;;;18.10;44.80;;;;;;469594;252;2153;-44
2021/05/05 04:51:20;;;;;;;;;;;18.10;44.50;;;;;;469536;252;1186;-44
2021/05/05 04:53:22;;;;;;;;;;;18.10;44.80;;;;;;469991;252;1114;-44
2021/05/05 04:55:23;;;;;;;;;;;18.20;44.80;;;;;;469760;252;1147;-44
2021/05/05 04:57:24;;;;;;;;;;;18.30;44.30;;;;;;469792;252;1336;-44
2021/05/05 04:59:26;;;;;;;;;;;18.40;44.10;;;;;;469579;252;1121;-44
2021/05/05 05:01:27;;;;;;;;;;;18.40;44.00;;;;;;469448;252;1311;-44
2021/05/05 05:03:28;;;;;;;;;;;18.40;44.00;;;;;;469440;252;1099;-44
2021/05/05 05:05:30;;;;;;;;;;;18.30;44.10;;;;;;469634;252;1075;-44
2021/05/05 05:07:31;;;;;;;;;;;18.30;44.20;;;;;;469550;252;1155;-44
2021/05/05 05:09:32;;;;;;;;;;;18.20;44.40;;;;;;469494;252;2188;-43
2021/05/05 05:11:33;;;;;;;;;;;18.30;44.30;;;;;;469603;252;1318;-43
2021/05/05 05:13:35;;;;;;;;;;;18.30;44.10;;;;;;469462;252;1132;-43
2021/05/05 05:15:36;;;;;;;;;;;18.40;44.10;;;;;;469502;252;1143;-43
2021/05/05 05:17:37;;;;;;;;;;;18.40;44.20;;;;;;469475;252;1552;-44
2021/05/05 05:19:39;;;;;;;;;;;18.30;44.20;;;;;;469657;252;1081;-44
2021/05/05 05:21:40;;;;;;;;;;;18.40;44.00;;;;;;469548;252;1242;-44
2021/05/05 05:23:41;;;;;;;;;;;18.40;43.90;;;;;;469421;252;1066;-44
2021/05/05 05:25:42;;;;;;;;;;;18.50;43.90;;;;;;469440;252;1204;-44
2021/05/05 05:27:44;;;;;;;;;;;18.50;43.90;;;;;;469390;252;1223;-44
2021/05/05 05:29:45;;;;;;;;;;;18.40;44.00;;;;;;469617;252;2152;-43
2021/05/05 05:31:48;;;;;;;;;;;18.40;44.00;;;;;;469632;252;1201;-44
2021/05/05 05:33:48;;;;;;;;;;;18.40;44.00;;;;;;469436;253;1978;-44
2021/05/05 05:35:49;;;;;;;;;;;18.40;44.10;;;;;;469448;252;1180;-44
2021/05/05 05:37:51;;;;;;;;;;;18.40;44.10;;;;;;469475;252;1227;-44
2021/05/05 05:39:52;;;;;;;;;;;18.40;44.10;;;;;;469472;252;1169;-44
2021/05/05 05:41:53;;;;;;;;;;;18.30;44.10;;;;;;469366;252;1337;-44
2021/05/05 05:43:54;;;;;;;;;;;18.30;44.20;;;;;;469653;252;1120;-45
2021/05/05 05:45:56;;;;;;;;;;;18.30;44.30;;;;;;469530;252;1361;-44
2021/05/05 05:47:57;;;;;;;;;;;18.30;44.30;;;;;;469261;252;1204;-44
2021/05/05 05:49:58;;;;;;;;;;;18.30;44.40;;;;;;469299;252;2249;-44
2021/05/05 05:51:59;;;;;;;;;;;18.20;44.30;;;;;;469255;252;1289;-44
2021/05/05 05:54:01;;;;;;;;;;;18.20;44.30;;;;;;469460;252;1088;-44
2021/05/05 05:56:02;;;;;;;;;;;18.20;44.50;;;;;;469493;252;1281;-44
2021/05/05 05:58:04;;;;;;;;;;;18.20;44.60;;;;;;469262;252;1132;-44
2021/05/05 06:00:05;;;;;;;;;;;18.10;44.50;;;;;;469298;252;1144;-44
2021/05/05 06:02:06;;;;;;;;;;;18.20;44.60;;;;;;469284;252;1245;-44
2021/05/05 06:04:08;;;;;;;;;;;18.20;44.60;;;;;;469310;252;1176;-44
2021/05/05 06:06:09;;;;;;;;;;;18.20;44.60;;;;;;469299;252;1188;-44
2021/05/05 06:08:10;;;;;;;;;;;18.10;44.50;;;;;;469366;252;1148;-44
2021/05/05 06:10:12;;;;;;;;;;;18.10;44.70;;;;;;469228;252;2160;-44
2021/05/05 06:12:13;;;;;;;;;;;18.00;44.80;;;;;;469323;252;1213;-44
2021/05/05 06:14:15;;;;;;;;;;;18.00;44.80;;;;;;469335;252;1123;-44
2021/05/05 06:16:17;;;;;;;;;;;18.10;44.70;;;;;;469378;252;2221;-44
2021/05/05 06:18:17;;;;;;;;;;;18.10;44.50;;;;;;469305;252;2270;-44
2021/05/05 06:20:18;;;;;;;;;;;18.10;44.60;;;;;;469290;252;1530;-44
2021/05/05 06:22:20;;;;;;;;;;;18.10;44.70;;;;;;469222;252;1094;-44
2021/05/05 06:24:21;;;;;;;;;;;18.10;44.70;;;;;;469276;252;1115;-44
2021/05/05 06:26:22;;;;;;;;;;;18.00;44.80;;;;;;469220;252;1305;-44
2021/05/05 06:28:24;;;;;;;;;;;18.00;44.80;;;;;;469191;252;1156;-44
2021/05/05 06:30:25;;;;;;;;;;;18.00;44.90;;;;;;469254;252;2153;-44
2021/05/05 06:32:26;;;;;;;;;;;18.00;44.80;;;;;;469266;252;2329;-44
2021/05/05 06:34:27;;;;;;;;;;;18.00;44.70;;;;;;469155;252;1212;-44
2021/05/05 06:36:29;;;;;;;;;;;18.00;44.80;;;;;;469132;249;1191;-44
2021/05/05 06:38:31;;;;;;;;;;;18.00;44.90;;;;;;469252;249;1113;-44
2021/05/05 06:40:32;;;;;;;;;;;18.00;45.00;;;;;;469050;252;1234;-44
2021/05/05 06:42:34;;;;;;;;;;;17.90;45.10;;;;;;469225;252;1287;-44
2021/05/05 06:44:35;;;;;;;;;;;17.90;45.10;;;;;;469021;252;1547;-44
2021/05/05 06:46:42;;;;;;;;;;;17.90;45.20;;;;;;469034;252;1314;-44
2021/05/05 06:48:37;;;;;;;;;;;17.90;45.20;;;;;;468803;253;2162;-44
2021/05/05 06:50:39;;;;;;;;;;;17.90;45.10;;;;;;469131;252;2196;-44
2021/05/05 06:52:40;;;;;;;;;;;17.90;45.10;;;;;;469178;252;1291;-44
2021/05/05 06:54:41;;;;;;;;;;;17.90;45.10;;;;;;468927;252;1213;-44
2021/05/05 06:56:43;;;;;;;;;;;17.90;45.10;;;;;;468987;252;1228;-44
2021/05/05 06:58:44;;;;;;;;;;;17.90;45.10;;;;;;469181;252;1175;-44
2021/05/05 07:00:45;;;;;;;;;;;17.90;45.00;;;;;;468953;252;1296;-44
2021/05/05 07:02:46;;;;;;;;;;;17.90;45.00;;;;;;469075;252;1347;-44
2021/05/05 07:04:48;;;;;;;;;;;17.80;45.20;;;;;;468956;252;1232;-44
2021/05/05 07:06:49;;;;;;;;;;;17.90;45.20;;;;;;468991;252;1139;-44
2021/05/05 07:08:51;;;;;;;;;;;17.90;45.10;;;;;;469202;252;1180;-44
2021/05/05 07:10:52;;;;;;;;;;;17.90;45.20;;;;;;469113;252;2148;-44
2021/05/05 07:12:53;;;;;;;;;;;17.80;45.20;;;;;;469036;252;1230;-44
2021/05/05 07:14:54;;;;;;;;;;;17.80;45.20;;;;;;469016;252;1403;-44
2021/05/05 07:16:56;;;;;;;;;;;17.80;45.10;;;;;;468967;252;1218;-44
2021/05/05 07:18:57;;;;;;;;;;;17.80;45.20;;;;;;469034;252;1130;-44
2021/05/05 07:20:58;;;;;;;;;;;17.80;45.20;;;;;;469057;252;1158;-44
2021/05/05 07:23:00;;;;;;;;;;;17.90;45.20;;;;;;469072;252;1213;-44
2021/05/05 07:25:01;;;;;;;;;;;17.90;45.10;;;;;;469112;252;1119;-44
2021/05/05 07:27:02;;;;;;;;;;;17.90;45.10;;;;;;469297;252;1386;-44
2021/05/05 07:29:03;;;;;;;;;;;17.80;45.00;;;;;;470051;249;1491;-44
2021/05/05 07:31:05;;;;;;;;;;;17.90;45.00;;;;;;469340;252;2194;-44
2021/05/05 07:33:07;;;;;;;;;;;17.90;45.00;;;;;;469222;250;1171;-44
2021/05/05 07:35:09;;;;;;;;;;;17.90;45.00;;;;;;469100;253;2082;-44
2021/05/05 07:37:11;;;;;;;;;;;17.90;44.90;;;;;;469106;250;2290;-44
2021/05/05 07:39:24;;;;;;;;;;;17.90;44.80;;;;;;468720;253;2111;-44
2021/05/05 07:44:30;;;;;;;;;;;17.90;44.90;;;;;;469038;252;1140;-44
2021/05/05 07:46:07;;;;;;;;;;;17.90;44.80;;;;;;467839;254;1775;-44
2021/05/05 07:48:08;;;;;;;;;;;17.90;44.70;;;;;;468729;253;1405;-44
2021/05/05 07:50:09;;;;;;;;;;;18.00;44.70;;;;;;468618;253;2551;-44
2021/05/05 07:52:10;;;;;;;;;;;18.00;44.70;;;;;;468858;252;1254;-44
2021/05/05 07:54:11;;;;;;;;;;;18.00;44.70;;;;;;468955;252;1109;-44
2021/05/05 07:56:13;;;;;;;;;;;18.00;44.60;;;;;;468929;252;1244;-44
2021/05/05 07:58:14;;;;;;;;;;;18.00;44.50;;;;;;469151;252;1197;-44
2021/05/05 08:00:15;;;;;;;;;;;18.00;44.50;;;;;;469004;252;1267;-44
2021/05/05 08:02:17;;;;;;;;;;;18.00;44.50;;;;;;469095;252;1369;-44
2021/05/05 08:04:18;;;;;;;;;;;18.00;44.60;;;;;;469014;252;1093;-44
2021/05/05 08:06:19;;;;;;;;;;;18.00;44.50;;;;;;469125;252;1227;-44
2021/05/05 08:08:20;;;;;;;;;;;18.00;44.60;;;;;;468969;252;1162;-44
2021/05/05 08:10:22;;;;;;;;;;;18.00;44.60;;;;;;469056;252;2195;-44
2021/05/05 08:12:23;;;;;;;;;;;18.00;44.70;;;;;;469273;252;1317;-44
2021/05/05 08:14:25;;;;;;;;;;;17.90;44.80;;;;;;469208;252;1088;-44
2021/05/05 08:16:26;;;;;;;;;;;17.80;44.90;;;;;;469068;252;2279;-44
2021/05/05 08:18:27;;;;;;;;;;;17.80;45.00;;;;;;469029;252;1190;-44
2021/05/05 08:20:28;;;;;;;;;;;17.80;45.30;;;;;;468939;252;1167;-44
2021/05/05 08:22:29;;;;;;;;;;;17.70;45.30;;;;;;469174;250;1534;-44
2021/05/05 08:24:31;;;;;;;;;;;17.60;45.40;;;;;;469299;252;983;-44
2021/05/05 08:26:32;;;;;;;;;;;17.50;45.70;;;;;;469148;252;1180;-44
2021/05/05 08:28:34;;;;;;;;;;;17.50;45.80;;;;;;468962;252;1208;-44
2021/05/05 08:30:35;;;;;;;;;;;17.40;45.90;;;;;;469008;250;2141;-44
2021/05/05 08:32:36;;;;;;;;;;;17.40;45.90;;;;;;469220;250;1231;-44
2021/05/05 08:34:37;;;;;;;;;;;17.40;45.90;;;;;;469689;252;863;-44
2021/05/05 08:36:38;;;;;;;;;;;17.40;46.10;;;;;;469219;245;1213;-44
2021/05/05 08:38:40;;;;;;;;;;;17.40;46.10;;;;;;469731;252;1082;-44
2021/05/05 08:40:41;;;;;;;;;;;17.40;46.10;;;;;;468931;252;1325;-44
2021/05/05 08:42:42;;;;;;;;;;;17.40;46.10;;;;;;468986;252;1233;-44
2021/05/05 08:44:43;;;;;;;;;;;17.50;45.80;;;;;;468997;252;1150;-44
2021/05/05 08:46:45;;;;;;;;;;;17.90;45.00;;;;;;468877;252;1393;-44
2021/05/05 08:48:46;;;;;;;;;;;18.30;43.90;;;;;;469224;252;1347;-44
2021/05/05 08:50:47;;;;;;;;;;;18.60;43.30;;;;;;469039;250;2211;-44
2021/05/05 08:52:49;;;;;;;;;;;18.80;42.80;;;;;;469089;252;1228;-44
2021/05/05 08:54:50;;;;;;;;;;;18.90;42.50;;;;;;469071;252;1204;-44
2021/05/05 08:56:52;;;;;;;;;;;19.00;42.20;;;;;;469088;252;1105;-45
2021/05/05 08:58:53;;;;;;;;;;;19.10;42.00;;;;;;469124;252;1134;-44
2021/05/05 09:00:54;;;;;;;;;;;19.20;41.80;;;;;;469148;252;1290;-44
2021/05/05 09:02:56;;;;;;;;;;;19.30;41.70;;;;;;468901;252;1281;-44
2021/05/05 09:04:57;;;;;;;;;;;19.30;41.50;;;;;;468910;252;1799;-44
2021/05/05 09:06:58;;;;;;;;;;;19.40;41.40;;;;;;469038;252;1130;-45
2021/05/05 09:08:59;;;;;;;;;;;19.50;41.30;;;;;;469043;252;1276;-44
2021/05/05 09:11:01;;;;;;;;;;;19.50;41.20;;;;;;468946;252;2205;-44
2021/05/05 09:13:02;;;;;;;;;;;19.50;41.10;;;;;;469037;252;1136;-44
2021/05/05 09:15:04;;;;;;;;;;;19.60;41.10;;;;;;469098;252;1144;-44
2021/05/05 09:17:05;;;;;;;;;;;19.60;41.00;;;;;;468953;252;1109;-44
2021/05/05 09:19:06;;;;;;;;;;;19.70;40.90;;;;;;468966;252;1220;-44
2021/05/05 09:21:07;;;;;;;;;;;19.70;40.90;;;;;;469022;252;1345;-44
2021/05/05 09:23:10;;;;;;;;;;;19.70;40.90;;;;;;468985;252;1348;-45
2021/05/05 09:25:10;;;;;;;;;;;19.70;40.80;;;;;;468267;252;1440;-45
2021/05/05 09:27:12;;;;;;;;;;;19.80;40.80;;;;;;468992;252;1096;-45
2021/05/05 09:29:13;;;;;;;;;;;19.80;40.70;;;;;;469092;252;1716;-44
2021/05/05 09:31:14;;;;;;;;;;;19.80;40.60;;;;;;469179;252;2195;-44
2021/05/05 09:33:15;;;;;;;;;;;19.90;40.60;;;;;;468936;252;1233;-44
2021/05/05 09:35:17;;;;;;;;;;;19.80;40.50;;;;;;468943;252;1238;-44
2021/05/05 09:37:18;;;;;;;;;;;19.90;40.50;;;;;;468785;252;1156;-44
2021/05/05 09:39:19;;;;;;;;;;;20.00;40.50;;;;;;469098;252;1157;-44
2021/05/05 09:41:21;;;;;;;;;;;20.00;40.50;;;;;;469037;252;1123;-44
2021/05/05 09:43:22;;;;;;;;;;;20.00;40.40;;;;;;468993;252;1177;-44
2021/05/05 09:45:23;;;;;;;;;;;20.00;40.40;;;;;;468874;252;1382;-45
2021/05/05 09:47:24;;;;;;;;;;;20.00;40.40;;;;;;468867;252;1186;-45
2021/05/05 09:49:26;;;;;;;;;;;20.00;40.30;;;;;;469069;252;1093;-45
2021/05/05 09:51:27;;;;;;;;;;;20.10;40.30;;;;;;469010;252;2196;-44
2021/05/05 09:53:28;;;;;;;;;;;20.10;40.30;;;;;;469056;252;1150;-44
2021/05/05 09:55:29;;;;;;;;;;;20.10;40.30;;;;;;468937;252;1239;-45
2021/05/05 09:57:31;;;;;;;;;;;20.10;40.30;;;;;;469074;252;1106;-45
2021/05/05 09:59:32;;;;;;;;;;;20.10;40.20;;;;;;469049;252;1242;-44
2021/05/05 10:01:33;;;;;;;;;;;20.20;40.30;;;;;;468948;252;1228;-44
2021/05/05 10:03:35;;;;;;;;;;;20.20;40.20;;;;;;469563;252;942;-44
2021/05/05 10:05:36;;;;;;;;;;;20.20;40.10;;;;;;469567;252;1215;-44
2021/05/05 10:07:37;;;;;;;;;;;20.20;40.10;;;;;;469716;252;985;-44
2021/05/05 10:09:38;;;;;;;;;;;20.20;40.10;;;;;;469044;252;1122;-45
2021/05/05 10:11:40;;;;;;;;;;;20.30;40.10;;;;;;468809;252;2195;-45
2021/05/05 10:13:41;;;;;;;;;;;20.30;40.10;;;;;;468999;252;1267;-44
2021/05/05 10:15:42;;;;;;;;;;;20.30;40.00;;;;;;469161;252;1329;-44
2021/05/05 10:17:44;;;;;;;;;;;20.30;40.00;;;;;;468947;252;1260;-44
2021/05/05 10:19:45;;;;;;;;;;;20.30;40.00;;;;;;468894;252;1170;-45
2021/05/05 10:21:46;;;;;;;;;;;20.30;40.00;;;;;;468938;252;1338;-45
2021/05/05 10:23:48;;;;;;;;;;;20.30;39.90;;;;;;469057;252;1175;-45
2021/05/05 10:25:49;;;;;;;;;;;20.40;40.00;;;;;;469017;252;1231;-44
2021/05/05 10:27:51;;;;;;;;;;;20.40;40.00;;;;;;468923;252;1188;-44
2021/05/05 10:29:52;;;;;;;;;;;20.40;39.90;;;;;;469083;252;1122;-44
2021/05/05 10:31:54;;;;;;;;;;;20.40;39.90;;;;;;468535;252;2199;-44
2021/05/05 10:33:56;;;;;;;;;;;20.40;39.90;;;;;;468828;252;1474;-45
2021/05/05 10:35:56;;;;;;;;;;;20.40;39.80;;;;;;468786;253;1853;-45
2021/05/05 10:37:58;;;;;;;;;;;20.40;39.80;;;;;;468956;252;1173;-45
2021/05/05 10:39:59;;;;;;;;;;;20.50;39.90;;;;;;469013;252;1965;-45
2021/05/05 10:42:00;;;;;;;;;;;20.50;39.80;;;;;;468994;252;1256;-44
2021/05/05 10:44:02;;;;;;;;;;;20.50;39.80;;;;;;468968;252;1275;-44
2021/05/05 10:46:03;;;;;;;;;;;20.50;39.80;;;;;;468773;252;2191;-44
2021/05/05 10:48:04;;;;;;;;;;;20.50;39.80;;;;;;468875;252;1391;-45
2021/05/05 10:50:06;;;;;;;;;;;20.50;39.80;;;;;;468964;252;1309;-44
2021/05/05 10:52:07;;;;;;;;;;;20.60;39.70;;;;;;468894;252;2198;-45
2021/05/05 10:54:08;;;;;;;;;;;20.60;39.80;;;;;;469189;252;1142;-44
2021/05/05 10:56:09;;;;;;;;;;;20.60;39.80;;;;;;469112;252;1299;-45
2021/05/05 10:58:11;;;;;;;;;;;20.60;39.70;;;;;;469065;252;1096;-44
2021/05/05 11:00:13;;;;;;;;;;;20.60;39.70;;;;;;468948;252;1186;-45
2021/05/05 11:02:13;;;;;;;;;;;20.60;39.60;;;;;;468882;252;2246;-45
2021/05/05 11:04:15;;;;;;;;;;;20.60;39.70;;;;;;468953;252;1120;-44
2021/05/05 11:06:16;;;;;;;;;;;20.60;39.70;;;;;;468982;252;1285;-45
2021/05/05 11:08:17;;;;;;;;;;;20.60;39.70;;;;;;469049;252;1130;-45
2021/05/05 11:10:19;;;;;;;;;;;20.60;39.70;;;;;;469097;252;1134;-44
2021/05/05 11:12:20;;;;;;;;;;;20.60;39.60;;;;;;469017;252;2136;-44
2021/05/05 11:14:21;;;;;;;;;;;20.70;39.60;;;;;;469069;252;1246;-45
2021/05/05 11:16:23;;;;;;;;;;;20.70;39.70;;;;;;468999;252;1376;-45
2021/05/05 11:18:24;;;;;;;;;;;20.70;39.60;;;;;;469021;252;1169;-44
2021/05/05 11:20:25;;;;;;;;;;;20.70;39.70;;;;;;469131;252;1223;-45
2021/05/05 11:22:32;;;;;;;;;;;20.70;39.60;;;;;;469049;252;1444;-45
2021/05/05 11:24:28;;;;;;;;;;;20.70;39.70;;;;;;468772;253;2360;-45
2021/05/05 11:26:31;;;;;;;;;;;20.70;39.70;;;;;;469050;250;1265;-44
2021/05/05 11:28:31;;;;;;;;;;;20.70;39.60;;;;;;468987;253;2222;-44
2021/05/05 11:30:33;;;;;;;;;;;20.70;39.70;;;;;;469042;252;1222;-45
2021/05/05 11:32:34;;;;;;;;;;;20.80;39.60;;;;;;469036;252;2184;-44
2021/05/05 11:34:35;;;;;;;;;;;20.70;39.50;;;;;;468929;252;1247;-44
2021/05/05 11:36:37;;;;;;;;;;;20.30;40.40;;;;;;468830;252;1196;-44
2021/05/05 11:38:38;;;;;;;;;;;19.80;41.50;;;;;;468938;252;1160;-44
2021/05/05 11:40:39;;;;;;;;;;;19.40;42.40;;;;;;469036;252;1091;-44
2021/05/05 11:42:41;;;;;;;;;;;19.20;43.00;;;;;;469243;252;1307;-44
2021/05/05 11:44:42;;;;;;;;;;;18.90;43.50;;;;;;468952;252;1143;-44
2021/05/05 11:46:43;;;;;;;;;;;18.80;43.80;;;;;;469068;250;1219;-45
2021/05/05 11:48:44;;;;;;;;;;;18.80;43.90;;;;;;469316;252;1100;-44
2021/05/05 11:50:46;;;;;;;;;;;18.60;44.10;;;;;;468992;252;1190;-44
2021/05/05 11:52:48;;;;;;;;;;;18.40;44.50;;;;;;469282;250;2143;-44
2021/05/05 11:54:49;;;;;;;;;;;18.40;44.80;;;;;;469095;252;1119;-44
2021/05/05 11:56:50;;;;;;;;;;;18.30;44.80;;;;;;469213;252;1402;-44
2021/05/05 11:58:51;;;;;;;;;;;18.20;45.00;;;;;;469040;252;1264;-44